Orion — JD3053 — position and weather

sailwx.info

Track history (hours):
 
Tides and Currents Weather Stations Pressure Air Temp Water Temp Dewpoint Dewpoint Depression Visibility Wind Speed Wind Dir Waves Ship Positions

Orion

Last reported at 2017-Oct-21 12:03 UTC. Time now 2017-Oct-22 19:01 UTC.
Position N 35°27' E 139°40'.

Length 30 m; draft 2.9 m.

Type: Pilot. MMSI: 431001618.

Date/timePositionNaut miles runAvg speedWind from/ knotsBaromVisibWave heightAir tempDewpointWater temp
2017-Oct-21 12:03N 35°27' E 139°40'0 0.0
2017-Oct-21 12:01N 35°27' E 139°40'0 0.0
2017-Oct-21 11:30N 35°27' E 139°40'0 0.0
2017-Oct-21 11:00N 35°27' E 139°40'0 0.0
2017-Oct-21 10:30N 35°27' E 139°40'0 0.0
2017-Oct-21 10:01N 35°27' E 139°40'0 0.0
2017-Oct-21 09:30N 35°27' E 139°40'0 0.0
2017-Oct-21 09:00N 35°27' E 139°40'0 0.0
2017-Oct-21 08:30N 35°27' E 139°40'2 3.7
2017-Oct-21 08:00N 35°26' E 139°42'5 9.2
2017-Oct-21 07:30N 35°23' E 139°46'510.9
2017-Oct-21 07:00N 35°17' E 139°45'612.1
2017-Oct-21 06:30N 35°12' E 139°47'1 3.0
2017-Oct-21 06:00N 35°10' E 139°47'713.2
2017-Oct-21 05:30N 35°16' E 139°44'510.2
2017-Oct-21 05:00N 35°19' E 139°39'0 0.0
2017-Oct-21 04:30N 35°19' E 139°39'0 0.0
2017-Oct-21 04:00N 35°19' E 139°39'0 0.0
2017-Oct-21 03:30N 35°19' E 139°39'2 5.0
2017-Oct-21 03:00N 35°18' E 139°42'612.7
2017-Oct-21 02:30N 35°13' E 139°46'4 8.9
2017-Oct-21 02:00N 35°17' E 139°45'612.4
2017-Oct-21 01:30N 35°22' E 139°41'1 2.1
2017-Oct-21 01:00N 35°23' E 139°40'1 2.4
2017-Oct-21 00:30N 35°24' E 139°42'3 6.3
2017-Oct-21 00:00N 35°27' E 139°40'0 0.0
2017-Oct-20 23:30N 35°27' E 139°40'0 0.0
2017-Oct-20 23:00N 35°27' E 139°40'0 0.0
2017-Oct-20 22:30N 35°27' E 139°40'1 0.0
2017-Oct-19 07:29N 35°27' E 139°40'4 9.1
2017-Oct-19 07:00N 35°30' E 139°44'1 1.5
2017-Oct-19 06:29N 35°31' E 139°44'2 4.0
2017-Oct-19 06:00N 35°29' E 139°43'4 7.0
2017-Oct-19 05:30N 35°27' E 139°40'0 0.0
2017-Oct-19 05:00N 35°27' E 139°40'0 0.0
2017-Oct-19 04:30N 35°27' E 139°40'0 0.0
2017-Oct-19 04:00N 35°27' E 139°40'0 0.0
2017-Oct-19 03:30N 35°27' E 139°40'0 0.0
2017-Oct-19 03:00N 35°27' E 139°40'0 0.0
2017-Oct-19 02:30N 35°27' E 139°40'0 0.0
2017-Oct-19 02:00N 35°27' E 139°40'0 0.0
2017-Oct-19 01:30N 35°27' E 139°40'0 0.0
2017-Oct-19 01:00N 35°27' E 139°40'0 0.0
2017-Oct-19 00:30N 35°27' E 139°40'0 0.0
2017-Oct-19 00:00N 35°27' E 139°40'0 0.0
2017-Oct-18 23:30N 35°27' E 139°40'0 0.0
2017-Oct-18 23:00N 35°27' E 139°40'0 0.0
2017-Oct-18 22:30N 35°27' E 139°40'0 0.0
2017-Oct-18 22:00N 35°27' E 139°40'0 0.0
2017-Oct-18 21:30N 35°27' E 139°40'0 0.0
2017-Oct-18 21:00N 35°27' E 139°40'0 0.0
2017-Oct-18 20:30N 35°27' E 139°40'0 0.0
2017-Oct-18 20:00N 35°27' E 139°40'0 0.0
2017-Oct-18 19:30N 35°27' E 139°40'0 0.0
2017-Oct-18 19:00N 35°27' E 139°40'0 0.0
2017-Oct-18 18:30N 35°27' E 139°40'0 0.0
2017-Oct-18 18:00N 35°27' E 139°40'0 0.0
2017-Oct-18 17:30N 35°27' E 139°40'0 0.0
2017-Oct-18 17:00N 35°27' E 139°40'0 0.0
2017-Oct-18 16:30N 35°27' E 139°40'0 0.0
2017-Oct-18 16:00N 35°27' E 139°40'0 0.0
2017-Oct-18 15:30N 35°27' E 139°40'0 0.0
2017-Oct-18 15:00N 35°27' E 139°40'1111.3
2017-Oct-18 14:00N 35°16' E 139°45'2 4.1
2017-Oct-18 13:30N 35°15' E 139°46'612.3
2017-Oct-18 13:01N 35°20' E 139°42'611.9
2017-Oct-18 12:30N 35°25' E 139°45'7 5.6
2017-Oct-18 11:20N 35°22' E 139°52'0 1.1
2017-Oct-18 10:55N 35°22' E 139°52'512.1
2017-Oct-18 10:30N 35°24' E 139°47'713.9
2017-Oct-18 10:01N 35°27' E 139°39'0 0.2
2017-Oct-18 09:30N 35°27' E 139°39'1 1.4
2017-Oct-18 09:00N 35°27' E 139°40'0 0.0
2017-Oct-18 08:30N 35°27' E 139°40'0 0.0
2017-Oct-18 08:00N 35°27' E 139°40'  
2017-Oct-15 21:41N 35°27' E 139°40'212.2
2017-Oct-15 21:30N 35°26' E 139°42'4 8.0
2017-Oct-15 21:01N 35°23' E 139°46'611.7
2017-Oct-15 20:30N 35°17' E 139°45'612.5
2017-Oct-15 20:00N 35°11' E 139°47'1 1.4
2017-Oct-15 19:30N 35°10' E 139°47'510.3
2017-Oct-15 19:00N 35°15' E 139°45'714.5
2017-Oct-15 18:31N 35°22' E 139°42'510.5
2017-Oct-15 18:00N 35°27' E 139°40'0 0.1
2017-Oct-15 17:30N 35°27' E 139°40'0 0.0
2017-Oct-15 17:01N 35°27' E 139°40'1 0.0
2017-Oct-15 02:40N 35°27' E 139°40'212.1
2017-Oct-15 02:30N 35°26' E 139°42'5 9.1
2017-Oct-15 02:00N 35°23' E 139°46'611.5
2017-Oct-15 01:30N 35°17' E 139°46'510.9
2017-Oct-15 01:00N 35°12' E 139°47'1 2.2
2017-Oct-15 00:30N 35°10' E 139°47'612.5
2017-Oct-15 00:00N 35°16' E 139°45'713.8
2017-Oct-14 23:31N 35°23' E 139°42'4 8.4
2017-Oct-14 23:01N 35°27' E 139°40'0 0.0
2017-Oct-14 22:31N 35°27' E 139°40'0 0.0
2017-Oct-14 22:00N 35°27' E 139°40'0 0.0
2017-Oct-14 21:31N 35°27' E 139°40'0 0.0
2017-Oct-14 21:01N 35°27' E 139°40'  
2017-Oct-12 08:17N 35°27' E 139°40'311.2
2017-Oct-12 08:01N 35°28' E 139°43'3 6.2
2017-Oct-12 07:30N 35°30' E 139°45'1 2.3
2017-Oct-12 07:00N 35°31' E 139°44'5 9.5
2017-Oct-12 06:30N 35°27' E 139°40'1 1.2
2017-Oct-12 06:00N 35°27' E 139°40'0 0.0
2017-Oct-12 05:30N 35°27' E 139°40'0 0.0
2017-Oct-12 05:00N 35°27' E 139°40'0 0.0
2017-Oct-12 04:30N 35°27' E 139°40'0 0.0
2017-Oct-12 04:00N 35°27' E 139°40'0 0.0
2017-Oct-12 03:30N 35°27' E 139°40'0 0.0
2017-Oct-12 03:00N 35°27' E 139°40'0 0.0
2017-Oct-12 02:30N 35°27' E 139°40'0 0.0
2017-Oct-12 02:00N 35°27' E 139°40'0 0.0
2017-Oct-12 01:30N 35°27' E 139°40'0 0.0
2017-Oct-12 01:00N 35°27' E 139°40'1 0.2
2017-Oct-11 21:25N 35°27' E 139°41'  
Track history (hours):
 
Tides and Currents Weather Stations Pressure Air Temp Water Temp Dewpoint Dewpoint Depression Visibility Wind Speed Wind Dir Waves Ship Positions

Orion

Last reported at 2017-Oct-21 12:03 UTC. Time now 2017-Oct-22 19:01 UTC.
Position N 35°27' E 139°40'.

Length 30 m; draft 2.9 m.

Type: Pilot. MMSI: 431001618.

Date/timePositionNaut miles runAvg speedWind from/ knotsBaromVisibWave heightAir tempDewpointWater temp
2017-Oct-21 12:03N 35°27' E 139°40'0 0.0
2017-Oct-21 12:01N 35°27' E 139°40'0 0.0
2017-Oct-21 11:30N 35°27' E 139°40'0 0.0
2017-Oct-21 11:00N 35°27' E 139°40'0 0.0
2017-Oct-21 10:30N 35°27' E 139°40'0 0.0
2017-Oct-21 10:01N 35°27' E 139°40'0 0.0
2017-Oct-21 09:30N 35°27' E 139°40'0 0.0
2017-Oct-21 09:00N 35°27' E 139°40'0 0.0
2017-Oct-21 08:30N 35°27' E 139°40'2 3.7
2017-Oct-21 08:00N 35°26' E 139°42'5 9.2
2017-Oct-21 07:30N 35°23' E 139°46'510.9
2017-Oct-21 07:00N 35°17' E 139°45'612.1
2017-Oct-21 06:30N 35°12' E 139°47'1 3.0
2017-Oct-21 06:00N 35°10' E 139°47'713.2
2017-Oct-21 05:30N 35°16' E 139°44'510.2
2017-Oct-21 05:00N 35°19' E 139°39'0 0.0
2017-Oct-21 04:30N 35°19' E 139°39'0 0.0
2017-Oct-21 04:00N 35°19' E 139°39'0 0.0
2017-Oct-21 03:30N 35°19' E 139°39'2 5.0
2017-Oct-21 03:00N 35°18' E 139°42'612.7
2017-Oct-21 02:30N 35°13' E 139°46'4 8.9
2017-Oct-21 02:00N 35°17' E 139°45'612.4
2017-Oct-21 01:30N 35°22' E 139°41'1 2.1
2017-Oct-21 01:00N 35°23' E 139°40'1 2.4
2017-Oct-21 00:30N 35°24' E 139°42'3 6.3
2017-Oct-21 00:00N 35°27' E 139°40'0 0.0
2017-Oct-20 23:30N 35°27' E 139°40'0 0.0
2017-Oct-20 23:00N 35°27' E 139°40'0 0.0
2017-Oct-20 22:30N 35°27' E 139°40'1 0.0
2017-Oct-19 07:29N 35°27' E 139°40'4 9.1
2017-Oct-19 07:00N 35°30' E 139°44'1 1.5
2017-Oct-19 06:29N 35°31' E 139°44'2 4.0
2017-Oct-19 06:00N 35°29' E 139°43'4 7.0
2017-Oct-19 05:30N 35°27' E 139°40'0 0.0
2017-Oct-19 05:00N 35°27' E 139°40'0 0.0
2017-Oct-19 04:30N 35°27' E 139°40'0 0.0
2017-Oct-19 04:00N 35°27' E 139°40'0 0.0
2017-Oct-19 03:30N 35°27' E 139°40'0 0.0
2017-Oct-19 03:00N 35°27' E 139°40'0 0.0
2017-Oct-19 02:30N 35°27' E 139°40'0 0.0
2017-Oct-19 02:00N 35°27' E 139°40'0 0.0
2017-Oct-19 01:30N 35°27' E 139°40'0 0.0
2017-Oct-19 01:00N 35°27' E 139°40'0 0.0
2017-Oct-19 00:30N 35°27' E 139°40'0 0.0
2017-Oct-19 00:00N 35°27' E 139°40'0 0.0
2017-Oct-18 23:30N 35°27' E 139°40'0 0.0
2017-Oct-18 23:00N 35°27' E 139°40'0 0.0
2017-Oct-18 22:30N 35°27' E 139°40'0 0.0
2017-Oct-18 22:00N 35°27' E 139°40'0 0.0
2017-Oct-18 21:30N 35°27' E 139°40'0 0.0
2017-Oct-18 21:00N 35°27' E 139°40'0 0.0
2017-Oct-18 20:30N 35°27' E 139°40'0 0.0
2017-Oct-18 20:00N 35°27' E 139°40'0 0.0
2017-Oct-18 19:30N 35°27' E 139°40'0 0.0
2017-Oct-18 19:00N 35°27' E 139°40'0 0.0
2017-Oct-18 18:30N 35°27' E 139°40'0 0.0
2017-Oct-18 18:00N 35°27' E 139°40'0 0.0
2017-Oct-18 17:30N 35°27' E 139°40'0 0.0
2017-Oct-18 17:00N 35°27' E 139°40'0 0.0
2017-Oct-18 16:30N 35°27' E 139°40'0 0.0
2017-Oct-18 16:00N 35°27' E 139°40'0 0.0
2017-Oct-18 15:30N 35°27' E 139°40'0 0.0
2017-Oct-18 15:00N 35°27' E 139°40'1111.3
2017-Oct-18 14:00N 35°16' E 139°45'2 4.1
2017-Oct-18 13:30N 35°15' E 139°46'612.3
2017-Oct-18 13:01N 35°20' E 139°42'611.9
2017-Oct-18 12:30N 35°25' E 139°45'7 5.6
2017-Oct-18 11:20N 35°22' E 139°52'0 1.1
2017-Oct-18 10:55N 35°22' E 139°52'512.1
2017-Oct-18 10:30N 35°24' E 139°47'713.9
2017-Oct-18 10:01N 35°27' E 139°39'0 0.2
2017-Oct-18 09:30N 35°27' E 139°39'1 1.4
2017-Oct-18 09:00N 35°27' E 139°40'0 0.0
2017-Oct-18 08:30N 35°27' E 139°40'0 0.0
2017-Oct-18 08:00N 35°27' E 139°40'  
2017-Oct-15 21:41N 35°27' E 139°40'212.2
2017-Oct-15 21:30N 35°26' E 139°42'4 8.0
2017-Oct-15 21:01N 35°23' E 139°46'611.7
2017-Oct-15 20:30N 35°17' E 139°45'612.5
2017-Oct-15 20:00N 35°11' E 139°47'1 1.4
2017-Oct-15 19:30N 35°10' E 139°47'510.3
2017-Oct-15 19:00N 35°15' E 139°45'714.5
2017-Oct-15 18:31N 35°22' E 139°42'510.5
2017-Oct-15 18:00N 35°27' E 139°40'0 0.1
2017-Oct-15 17:30N 35°27' E 139°40'0 0.0
2017-Oct-15 17:01N 35°27' E 139°40'1 0.0
2017-Oct-15 02:40N 35°27' E 139°40'212.1
2017-Oct-15 02:30N 35°26' E 139°42'5 9.1
2017-Oct-15 02:00N 35°23' E 139°46'611.5
2017-Oct-15 01:30N 35°17' E 139°46'510.9
2017-Oct-15 01:00N 35°12' E 139°47'1 2.2
2017-Oct-15 00:30N 35°10' E 139°47'612.5
2017-Oct-15 00:00N 35°16' E 139°45'713.8
2017-Oct-14 23:31N 35°23' E 139°42'4 8.4
2017-Oct-14 23:01N 35°27' E 139°40'0 0.0
2017-Oct-14 22:31N 35°27' E 139°40'0 0.0
2017-Oct-14 22:00N 35°27' E 139°40'0 0.0
2017-Oct-14 21:31N 35°27' E 139°40'0 0.0
2017-Oct-14 21:01N 35°27' E 139°40'  
2017-Oct-12 08:17N 35°27' E 139°40'311.2
2017-Oct-12 08:01N 35°28' E 139°43'3 6.2
2017-Oct-12 07:30N 35°30' E 139°45'1 2.3
2017-Oct-12 07:00N 35°31' E 139°44'5 9.5
2017-Oct-12 06:30N 35°27' E 139°40'1 1.2
2017-Oct-12 06:00N 35°27' E 139°40'0 0.0
2017-Oct-12 05:30N 35°27' E 139°40'0 0.0
2017-Oct-12 05:00N 35°27' E 139°40'0 0.0
2017-Oct-12 04:30N 35°27' E 139°40'0 0.0
2017-Oct-12 04:00N 35°27' E 139°40'0 0.0
2017-Oct-12 03:30N 35°27' E 139°40'0 0.0
2017-Oct-12 03:00N 35°27' E 139°40'0 0.0
2017-Oct-12 02:30N 35°27' E 139°40'0 0.0
2017-Oct-12 02:00N 35°27' E 139°40'0 0.0
2017-Oct-12 01:30N 35°27' E 139°40'0 0.0
2017-Oct-12 01:00N 35°27' E 139°40'1 0.2
2017-Oct-11 21:25N 35°27' E 139°41'  

Dump ship's entire track history